createdAt,value
2023-05-06T00:00:57.404Z,1.60
2023-05-06T00:03:25.511Z,1.80
2023-05-06T00:05:53.829Z,1.80
2023-05-06T00:08:21.830Z,1.80
2023-05-06T00:10:49.781Z,2.30
2023-05-06T00:13:17.642Z,2.00
2023-05-06T00:15:45.544Z,2.00
2023-05-06T00:18:15.268Z,1.80
2023-05-06T00:20:43.374Z,2.00
2023-05-06T00:23:11.188Z,1.80
2023-05-06T00:25:39.009Z,2.10
2023-05-06T00:28:06.795Z,2.30
2023-05-06T00:30:34.765Z,2.10
2023-05-06T00:33:03.025Z,1.80
2023-05-06T00:35:31.350Z,2.00
2023-05-06T00:38:12.157Z,2.10
2023-05-06T00:40:40.708Z,1.60
2023-05-06T00:43:09.035Z,2.60
2023-05-06T00:45:37.434Z,1.70
2023-05-06T00:48:07.431Z,1.90
2023-05-06T00:50:36.189Z,1.90
2023-05-06T00:53:08.220Z,1.90
2023-05-06T00:55:37.907Z,1.70
2023-05-06T00:58:06.470Z,2.00
2023-05-06T01:00:34.924Z,2.10
2023-05-06T01:03:02.847Z,2.00
2023-05-06T01:05:39.679Z,2.10
2023-05-06T01:08:21.747Z,2.50
2023-05-06T01:11:35.376Z,1.80
2023-05-06T01:14:20.859Z,1.90
2023-05-06T01:16:55.152Z,2.00
2023-05-06T01:19:49.790Z,2.00
2023-05-06T01:22:19.493Z,2.10
2023-05-06T01:24:47.281Z,2.40
2023-05-06T01:27:16.904Z,2.30
2023-05-06T01:29:47.799Z,2.50
2023-05-06T01:32:40.575Z,2.10
2023-05-06T01:35:26.778Z,2.00
2023-05-06T01:38:22.042Z,2.30
2023-05-06T01:40:54.569Z,2.00
2023-05-06T01:43:26.587Z,2.00
2023-05-06T01:45:56.170Z,2.00
2023-05-06T01:48:32.366Z,2.00
2023-05-06T01:51:00.286Z,2.00
2023-05-06T01:53:28.104Z,1.90
2023-05-06T01:55:55.995Z,2.20
2023-05-06T01:58:23.870Z,1.80
2023-05-06T02:00:51.780Z,2.00
2023-05-06T02:03:19.799Z,2.20
2023-05-06T02:05:49.202Z,2.10
2023-05-06T02:08:17.131Z,2.10
2023-05-06T02:10:45.360Z,2.50
2023-05-06T02:13:13.138Z,2.20
2023-05-06T02:15:40.983Z,2.10
2023-05-06T02:18:09.010Z,2.40
2023-05-06T02:20:36.779Z,2.30
2023-05-06T02:23:04.631Z,2.30
2023-05-06T02:25:32.408Z,2.10
2023-05-06T02:28:00.515Z,2.20
2023-05-06T02:30:30.685Z,2.10
2023-05-06T02:32:58.566Z,2.50
2023-05-06T02:35:26.653Z,2.50
2023-05-06T02:37:54.478Z,2.10
2023-05-06T02:40:22.317Z,2.30
2023-05-06T02:42:50.439Z,2.50
2023-05-06T02:45:18.484Z,2.50
2023-05-06T02:47:46.304Z,2.00
2023-05-06T02:50:14.202Z,2.30
2023-05-06T02:52:42.979Z,2.40
2023-05-06T02:55:11.766Z,2.20
2023-05-06T02:57:39.722Z,2.60
2023-05-06T03:00:11.114Z,2.20
2023-05-06T03:02:39.400Z,2.40
2023-05-06T03:05:08.446Z,2.20
2023-05-06T03:07:38.218Z,2.30
2023-05-06T03:10:07.610Z,2.20
2023-05-06T03:12:35.628Z,2.30
2023-05-06T03:15:03.715Z,2.20
2023-05-06T03:17:31.627Z,1.90
2023-05-06T03:19:59.514Z,2.10
2023-05-06T03:22:27.354Z,2.00
2023-05-06T03:24:55.140Z,2.30
2023-05-06T03:27:22.963Z,2.10
2023-05-06T03:29:50.943Z,2.10
2023-05-06T03:32:18.786Z,1.90
2023-05-06T03:34:46.565Z,2.20
2023-05-06T03:37:14.326Z,2.10
2023-05-06T03:39:42.086Z,2.10
2023-05-06T03:42:10.068Z,2.00
2023-05-06T03:44:38.013Z,1.90
2023-05-06T03:47:05.791Z,1.60
2023-05-06T03:49:33.618Z,1.70
2023-05-06T03:52:01.745Z,2.00
2023-05-06T03:54:29.687Z,1.80
2023-05-06T03:56:57.472Z,1.90
2023-05-06T03:59:25.240Z,1.80
2023-05-06T04:01:53.057Z,1.80
2023-05-06T04:04:21.182Z,1.90
2023-05-06T04:06:48.970Z,2.10
2023-05-06T04:09:16.959Z,2.30
2023-05-06T04:11:45.036Z,1.60
2023-05-06T04:14:13.007Z,1.50
2023-05-06T04:16:40.880Z,1.70
2023-05-06T04:19:09.079Z,2.10
2023-05-06T04:21:36.891Z,1.90
2023-05-06T04:24:04.962Z,1.80
2023-05-06T04:26:33.745Z,1.80
2023-05-06T04:29:01.544Z,1.80
2023-05-06T04:31:29.530Z,1.90
2023-05-06T04:33:57.366Z,1.90
2023-05-06T04:36:25.185Z,1.80
2023-05-06T04:38:53.451Z,1.80
2023-05-06T04:41:22.350Z,1.60
2023-05-06T04:43:50.124Z,1.50
2023-05-06T04:46:17.905Z,1.90
2023-05-06T04:48:45.681Z,1.30
2023-05-06T04:51:13.417Z,1.30
2023-05-06T04:53:41.420Z,1.50
2023-05-06T04:56:09.335Z,1.50
2023-05-06T04:58:37.105Z,1.50
2023-05-06T05:01:08.876Z,1.50
2023-05-06T05:03:36.715Z,1.50
2023-05-06T05:06:04.847Z,1.50
2023-05-06T05:08:32.878Z,1.40
2023-05-06T05:11:00.851Z,1.30
2023-05-06T05:13:28.658Z,1.60
2023-05-06T05:15:56.539Z,1.00
2023-05-06T05:18:24.663Z,1.30
2023-05-06T05:20:55.313Z,1.20
2023-05-06T05:23:23.084Z,1.20
2023-05-06T05:25:51.330Z,1.20
2023-05-06T05:28:19.106Z,1.40
2023-05-06T05:30:47.010Z,1.10
2023-05-06T05:33:14.977Z,1.10
2023-05-06T05:35:43.147Z,1.20
2023-05-06T05:38:14.139Z,1.40
2023-05-06T05:40:42.325Z,1.10
2023-05-06T05:43:10.181Z,1.20
2023-05-06T05:45:38.007Z,1.00
2023-05-06T05:48:05.967Z,1.20
2023-05-06T05:50:33.888Z,1.00
2023-05-06T05:53:01.658Z,0.70
2023-05-06T05:55:29.833Z,1.00
2023-05-06T05:57:57.705Z,0.90
2023-05-06T06:00:25.682Z,0.80
2023-05-06T06:02:53.548Z,0.90
2023-05-06T06:05:22.165Z,1.10
2023-05-06T06:07:50.137Z,1.30
2023-05-06T06:10:18.077Z,0.70
2023-05-06T06:12:45.933Z,1.10
2023-05-06T06:15:13.944Z,0.80
2023-05-06T06:17:41.864Z,0.80
2023-05-06T06:20:10.428Z,1.00
2023-05-06T06:22:38.302Z,0.80
2023-05-06T06:25:07.069Z,1.00
2023-05-06T06:27:36.758Z,0.70
2023-05-06T06:30:05.395Z,0.90
2023-05-06T06:32:33.149Z,1.00
2023-05-06T06:35:01.084Z,0.80
2023-05-06T06:37:28.841Z,0.80
2023-05-06T06:39:56.897Z,0.90
2023-05-06T06:42:24.686Z,0.90
2023-05-06T06:44:52.454Z,1.20
2023-05-06T06:47:20.870Z,0.90
2023-05-06T06:49:48.681Z,1.00
2023-05-06T06:52:16.480Z,0.70
2023-05-06T06:54:44.529Z,1.10
2023-05-06T06:57:12.270Z,1.10
2023-05-06T06:59:39.990Z,0.90
2023-05-06T07:02:07.844Z,0.80
2023-05-06T07:04:35.715Z,1.00
2023-05-06T07:07:03.550Z,1.00
2023-05-06T07:09:31.965Z,0.80
2023-05-06T07:12:01.980Z,1.20
2023-05-06T07:14:29.816Z,1.00
2023-05-06T07:16:57.635Z,0.90
2023-05-06T07:19:25.408Z,0.90
2023-05-06T07:21:53.789Z,0.90
2023-05-06T07:24:22.423Z,0.60
2023-05-06T07:26:50.442Z,0.80
2023-05-06T07:29:18.241Z,0.60
2023-05-06T07:31:46.112Z,0.80
2023-05-06T07:34:13.831Z,1.20
2023-05-06T07:36:43.566Z,0.90
2023-05-06T07:39:13.946Z,1.40
2023-05-06T07:41:41.770Z,2.00
2023-05-06T07:44:09.641Z,1.60
2023-05-06T07:46:38.278Z,1.00
2023-05-06T07:49:06.269Z,0.80
2023-05-06T07:51:34.054Z,0.90
2023-05-06T07:54:01.996Z,0.90
2023-05-06T07:56:29.759Z,0.90
2023-05-06T07:58:59.399Z,0.90
2023-05-06T08:01:29.186Z,1.00
2023-05-06T08:03:57.045Z,1.10
2023-05-06T08:06:24.882Z,0.80
2023-05-06T08:08:52.700Z,1.00
2023-05-06T08:11:20.507Z,1.00
2023-05-06T08:13:48.387Z,1.30
2023-05-06T08:16:16.572Z,0.90
2023-05-06T08:18:44.371Z,1.00
2023-05-06T08:21:12.252Z,1.10
2023-05-06T08:23:40.012Z,1.20
2023-05-06T08:26:07.829Z,1.30
2023-05-06T08:28:36.137Z,1.10
2023-05-06T08:31:03.918Z,1.20
2023-05-06T08:33:31.792Z,0.90
2023-05-06T08:35:59.712Z,0.90
2023-05-06T08:38:27.714Z,0.70
2023-05-06T08:41:00.745Z,0.70
2023-05-06T08:43:32.039Z,1.10
2023-05-06T08:45:59.930Z,1.00
2023-05-06T08:48:28.754Z,1.00
2023-05-06T08:51:02.204Z,1.00
2023-05-06T08:53:32.923Z,0.80
2023-05-06T08:56:08.937Z,0.90
2023-05-06T08:58:38.707Z,0.80
2023-05-06T09:01:06.909Z,1.20
2023-05-06T09:03:34.944Z,0.80
2023-05-06T09:06:02.905Z,0.80
2023-05-06T09:08:30.889Z,1.10
2023-05-06T09:10:58.655Z,0.90
2023-05-06T09:13:26.831Z,1.00
2023-05-06T09:15:55.339Z,0.80
2023-05-06T09:18:23.389Z,1.20
2023-05-06T09:20:51.217Z,0.90
2023-05-06T09:23:19.289Z,1.00
2023-05-06T09:25:49.762Z,0.90
2023-05-06T09:28:17.630Z,1.10
2023-05-06T09:30:48.064Z,0.90
2023-05-06T09:33:16.242Z,1.00
2023-05-06T09:35:44.499Z,0.90
2023-05-06T09:38:12.291Z,1.00
2023-05-06T09:40:40.099Z,1.10
2023-05-06T09:43:09.034Z,0.90
2023-05-06T09:45:37.037Z,0.90
2023-05-06T09:48:05.219Z,1.10
2023-05-06T09:50:33.439Z,0.90
2023-05-06T09:53:05.082Z,1.00
2023-05-06T09:55:34.402Z,1.00
2023-05-06T09:58:05.572Z,1.10
2023-05-06T10:00:34.621Z,1.10
2023-05-06T10:03:04.620Z,0.90
2023-05-06T10:05:34.479Z,1.10
2023-05-06T10:08:04.497Z,0.80
2023-05-06T10:10:37.742Z,1.10
2023-05-06T10:13:05.728Z,1.30
2023-05-06T10:15:34.949Z,1.30
2023-05-06T10:18:04.492Z,1.00
2023-05-06T10:20:36.135Z,1.40
2023-05-06T10:23:50.991Z,1.20
2023-05-06T10:26:22.456Z,1.70
2023-05-06T10:28:53.908Z,1.30
2023-05-06T10:31:21.819Z,1.20
2023-05-06T10:33:52.875Z,1.50
2023-05-06T10:36:26.061Z,1.30
2023-05-06T10:38:57.016Z,1.40
2023-05-06T10:41:28.294Z,1.20
2023-05-06T10:43:57.846Z,1.40
2023-05-06T10:46:29.063Z,1.40
2023-05-06T10:49:06.428Z,1.10
2023-05-06T10:51:37.886Z,1.40
2023-05-06T10:54:18.536Z,1.30
2023-05-06T10:56:49.808Z,1.40
2023-05-06T10:59:24.771Z,1.60
2023-05-06T11:02:11.198Z,1.40
2023-05-06T11:04:40.351Z,1.60
2023-05-06T11:07:10.049Z,1.40
2023-05-06T11:10:02.240Z,1.60
2023-05-06T11:12:46.583Z,1.70
2023-05-06T11:15:36.209Z,1.70
2023-05-06T11:18:34.058Z,1.60
2023-05-06T11:21:04.492Z,1.60
2023-05-06T11:23:46.832Z,1.60
2023-05-06T11:26:15.899Z,1.20
2023-05-06T11:28:47.143Z,1.30
2023-05-06T11:31:15.990Z,1.40
2023-05-06T11:33:49.897Z,1.20
2023-05-06T11:36:21.401Z,1.30
2023-05-06T11:38:53.240Z,1.20
2023-05-06T11:41:23.346Z,1.10
2023-05-06T11:43:54.012Z,0.90
2023-05-06T11:46:25.043Z,1.30
2023-05-06T11:48:52.850Z,1.50
2023-05-06T11:51:24.783Z,1.20
2023-05-06T11:54:09.075Z,1.40
2023-05-06T11:56:52.451Z,1.70
2023-05-06T11:59:33.275Z,1.30
2023-05-06T12:02:04.625Z,1.60
2023-05-06T12:04:48.380Z,1.40
2023-05-06T12:07:17.217Z,1.00
2023-05-06T12:09:50.140Z,1.50
2023-05-06T12:12:23.439Z,1.30
2023-05-06T12:14:53.567Z,1.30
2023-05-06T12:17:21.638Z,1.10
2023-05-06T12:19:50.549Z,1.60
2023-05-06T12:22:21.967Z,1.30
2023-05-06T12:24:50.459Z,1.30
2023-05-06T12:27:33.112Z,1.40
2023-05-06T12:30:02.760Z,1.10
2023-05-06T12:32:31.350Z,1.20
2023-05-06T12:35:00.641Z,1.30
2023-05-06T12:37:30.368Z,1.60
2023-05-06T12:40:07.812Z,1.20
2023-05-06T12:42:35.949Z,1.20
2023-05-06T12:45:16.342Z,1.40
2023-05-06T12:47:56.186Z,1.30
2023-05-06T12:50:37.315Z,1.00
2023-05-06T12:53:07.688Z,1.20
2023-05-06T12:55:38.685Z,1.50
2023-05-06T12:58:17.082Z,1.40
2023-05-06T13:00:46.130Z,1.80
2023-05-06T13:03:14.457Z,1.10
2023-05-06T13:05:42.396Z,1.40
2023-05-06T13:08:10.172Z,2.00
2023-05-06T13:10:37.990Z,1.50
2023-05-06T13:13:05.867Z,1.60
2023-05-06T13:15:35.039Z,1.50
2023-05-06T13:18:02.994Z,1.20
2023-05-06T13:20:32.550Z,1.70
2023-05-06T13:23:00.324Z,1.40
2023-05-06T13:25:30.806Z,1.50
2023-05-06T13:27:58.570Z,1.90
2023-05-06T13:33:08.555Z,1.80
2023-05-06T13:35:36.493Z,1.50
2023-05-06T13:38:04.542Z,1.80
2023-05-06T13:40:32.620Z,2.30
2023-05-06T13:43:00.918Z,1.60
2023-05-06T13:45:28.750Z,1.50
2023-05-06T13:47:57.863Z,1.30
2023-05-06T13:50:25.902Z,1.60
2023-05-06T13:52:53.658Z,1.30
2023-05-06T13:55:21.376Z,1.80
2023-05-06T13:57:51.641Z,1.20
2023-05-06T14:00:19.838Z,1.40
2023-05-06T14:02:47.665Z,1.30
2023-05-06T14:05:15.947Z,1.20
2023-05-06T14:07:43.866Z,1.20
2023-05-06T14:10:20.290Z,1.40
2023-05-06T14:12:48.514Z,1.30
2023-05-06T14:15:16.432Z,1.60
2023-05-06T14:17:44.311Z,1.60
2023-05-06T14:20:12.313Z,1.60
2023-05-06T14:22:41.986Z,1.70
2023-05-06T14:25:11.392Z,1.40
2023-05-06T14:27:39.789Z,1.90
2023-05-06T14:30:09.660Z,1.90
2023-05-06T14:32:37.772Z,1.80
2023-05-06T14:35:08.260Z,1.90
2023-05-06T14:37:36.338Z,1.50
2023-05-06T14:40:10.140Z,2.30
2023-05-06T14:42:41.595Z,2.30
2023-05-06T14:45:13.872Z,2.90
2023-05-06T14:47:44.478Z,3.10
2023-05-06T14:50:20.190Z,2.80
2023-05-06T14:52:48.372Z,2.40
2023-05-06T14:55:16.270Z,2.10
2023-05-06T14:57:44.060Z,2.10
2023-05-06T15:00:15.006Z,2.20
2023-05-06T15:02:43.110Z,2.10
2023-05-06T15:05:12.696Z,2.20
2023-05-06T15:07:43.675Z,2.20
2023-05-06T15:10:11.822Z,2.20
2023-05-06T15:12:39.814Z,1.90
2023-05-06T15:15:08.888Z,1.50
2023-05-06T15:17:37.296Z,2.00
2023-05-06T15:20:07.200Z,1.40
2023-05-06T15:22:36.724Z,2.50
2023-05-06T15:25:09.522Z,1.90
2023-05-06T15:27:40.138Z,1.60
2023-05-06T15:30:12.691Z,2.00
2023-05-06T15:32:40.759Z,1.80
2023-05-06T15:35:09.339Z,1.80
2023-05-06T15:37:37.536Z,1.80
2023-05-06T15:40:12.253Z,1.90
2023-05-06T15:42:43.134Z,1.80
2023-05-06T15:45:13.570Z,2.20
2023-05-06T15:47:41.495Z,1.60
2023-05-06T15:50:29.017Z,2.30
2023-05-06T15:53:02.314Z,1.70
2023-05-06T15:55:35.031Z,1.60
2023-05-06T15:58:09.272Z,1.80
2023-05-06T16:00:37.324Z,2.00
2023-05-06T16:03:05.962Z,2.00
2023-05-06T16:05:34.794Z,2.20
2023-05-06T16:08:02.710Z,1.70
2023-05-06T16:10:30.656Z,1.90
2023-05-06T16:12:58.573Z,2.30
2023-05-06T16:15:26.341Z,2.60
2023-05-06T16:17:54.174Z,2.00
2023-05-06T16:20:22.063Z,2.10
2023-05-06T16:22:51.164Z,1.70
2023-05-06T16:25:19.176Z,2.20
2023-05-06T16:27:47.186Z,2.10
2023-05-06T16:30:15.375Z,2.00
2023-05-06T16:32:43.299Z,2.50
2023-05-06T16:35:11.138Z,1.80
2023-05-06T16:37:39.419Z,2.60
2023-05-06T16:40:08.898Z,2.20
2023-05-06T16:42:36.964Z,2.30
2023-05-06T16:45:06.851Z,2.30
2023-05-06T16:47:35.608Z,2.50
2023-05-06T16:50:04.528Z,2.20
2023-05-06T16:52:32.849Z,2.60
2023-05-06T16:55:07.252Z,3.00
2023-05-06T16:57:35.376Z,2.90
2023-05-06T17:00:07.952Z,3.70
2023-05-06T17:02:40.172Z,2.90
2023-05-06T17:05:08.722Z,2.80
2023-05-06T17:07:36.610Z,2.70
2023-05-06T17:10:06.118Z,2.40
2023-05-06T17:12:34.367Z,2.40
2023-05-06T17:15:04.037Z,2.60
2023-05-06T17:17:32.875Z,2.80
2023-05-06T17:20:01.689Z,2.30
2023-05-06T17:22:29.576Z,2.20
2023-05-06T17:24:57.632Z,2.00
2023-05-06T17:27:25.611Z,2.30
2023-05-06T17:29:53.429Z,2.40
2023-05-06T17:32:21.305Z,2.20
2023-05-06T17:34:49.248Z,2.30
2023-05-06T17:37:17.203Z,2.70
2023-05-06T17:39:46.364Z,2.10
2023-05-06T17:42:14.389Z,2.20
2023-05-06T17:44:43.038Z,2.60
2023-05-06T17:47:11.158Z,2.20
2023-05-06T17:49:38.991Z,2.00
2023-05-06T17:52:06.803Z,2.80
2023-05-06T17:54:36.453Z,2.80
2023-05-06T17:57:04.250Z,3.50
2023-05-06T17:59:32.176Z,3.10
2023-05-06T18:02:00.417Z,2.60
2023-05-06T18:04:38.120Z,2.40
2023-05-06T18:07:07.489Z,2.30
2023-05-06T18:09:36.048Z,2.20
2023-05-06T18:12:04.237Z,2.40
2023-05-06T18:14:32.098Z,3.00
2023-05-06T18:17:00.038Z,2.60
2023-05-06T18:19:27.888Z,2.20
2023-05-06T18:21:56.778Z,2.30
2023-05-06T18:24:24.819Z,3.10
2023-05-06T18:26:52.763Z,3.30
2023-05-06T18:29:20.581Z,2.50
2023-05-06T18:31:48.562Z,2.50
2023-05-06T18:34:16.633Z,3.20
2023-05-06T18:36:44.424Z,3.10
2023-05-06T18:39:12.334Z,3.30
2023-05-06T18:41:41.434Z,3.30
2023-05-06T18:44:09.237Z,3.00
2023-05-06T18:46:37.269Z,2.70
2023-05-06T18:49:05.319Z,3.20
2023-05-06T18:51:33.335Z,3.60
2023-05-06T18:54:01.468Z,4.20
2023-05-06T18:56:29.532Z,3.80
2023-05-06T18:58:57.532Z,3.50
2023-05-06T19:01:25.771Z,3.60
2023-05-06T19:03:53.911Z,3.40
2023-05-06T19:06:21.778Z,3.20
2023-05-06T19:08:49.541Z,3.50
2023-05-06T19:11:21.547Z,3.50
2023-05-06T19:13:50.689Z,3.90
2023-05-06T19:16:18.546Z,3.60
2023-05-06T19:18:47.946Z,2.90
2023-05-06T19:21:15.985Z,3.10
2023-05-06T19:23:43.733Z,3.00
2023-05-06T19:26:12.310Z,2.90
2023-05-06T19:28:40.829Z,2.90
2023-05-06T19:31:10.875Z,3.20
2023-05-06T19:33:39.942Z,3.20
2023-05-06T19:36:07.897Z,3.10
2023-05-06T19:38:35.795Z,2.80
2023-05-06T19:41:04.457Z,3.00
2023-05-06T19:43:32.349Z,3.40
2023-05-06T19:46:00.185Z,3.50
2023-05-06T19:48:27.951Z,3.70
2023-05-06T19:50:55.836Z,3.50
2023-05-06T19:53:24.162Z,3.70
2023-05-06T19:55:56.161Z,3.40
2023-05-06T19:58:23.906Z,3.20
2023-05-06T20:00:51.830Z,4.20
2023-05-06T20:03:19.791Z,3.60
2023-05-06T20:05:47.725Z,3.80
2023-05-06T20:08:15.538Z,3.90
2023-05-06T20:10:43.606Z,4.00
2023-05-06T20:13:12.149Z,3.90
2023-05-06T20:15:40.094Z,3.20
2023-05-06T20:18:07.995Z,4.40
2023-05-06T20:20:36.541Z,4.10
2023-05-06T20:23:04.547Z,4.40
2023-05-06T20:25:33.236Z,4.40
2023-05-06T20:28:02.015Z,4.70
2023-05-06T20:30:29.923Z,5.10
2023-05-06T20:32:57.811Z,4.90
2023-05-06T20:35:27.296Z,4.80
2023-05-06T20:37:55.982Z,4.90
2023-05-06T20:40:23.821Z,5.30
2023-05-06T20:42:51.633Z,5.10
2023-05-06T20:45:19.814Z,4.90
2023-05-06T20:47:47.630Z,3.90
2023-05-06T20:50:17.397Z,4.20
2023-05-06T20:52:46.964Z,4.00
2023-05-06T20:55:16.060Z,4.20
2023-05-06T20:57:44.925Z,4.20
2023-05-06T21:00:13.435Z,4.20
2023-05-06T21:02:42.307Z,3.90
2023-05-06T21:05:11.227Z,4.20
2023-05-06T21:07:39.435Z,4.10
2023-05-06T21:10:07.950Z,3.90
2023-05-06T21:12:35.885Z,4.30
2023-05-06T21:15:04.241Z,4.20
2023-05-06T21:17:32.139Z,4.20
2023-05-06T21:20:00.080Z,4.00
2023-05-06T21:22:27.825Z,4.40
2023-05-06T21:24:56.168Z,4.00
2023-05-06T21:27:24.070Z,3.90
2023-05-06T21:29:51.878Z,4.00
2023-05-06T21:32:19.901Z,3.60
2023-05-06T21:34:47.897Z,3.80
2023-05-06T21:37:15.876Z,3.50
2023-05-06T21:39:43.708Z,4.50
2023-05-06T21:42:11.533Z,3.90
2023-05-06T21:44:39.307Z,3.90
2023-05-06T21:47:07.120Z,4.50
2023-05-06T21:49:34.952Z,4.20
2023-05-06T21:52:03.638Z,4.00
2023-05-06T21:54:31.622Z,4.50
2023-05-06T21:56:59.369Z,4.10
2023-05-06T21:59:27.083Z,4.40
2023-05-06T22:01:54.922Z,4.60
2023-05-06T22:04:22.806Z,4.60
2023-05-06T22:06:50.773Z,4.40
2023-05-06T22:09:21.595Z,4.20
2023-05-06T22:11:50.368Z,5.00
2023-05-06T22:14:19.845Z,4.80
2023-05-06T22:16:50.524Z,6.20
2023-05-06T22:19:18.405Z,4.50
2023-05-06T22:21:46.342Z,4.70
2023-05-06T22:24:14.194Z,4.70
2023-05-06T22:26:42.138Z,4.30
2023-05-06T22:29:10.703Z,4.40
2023-05-06T22:31:38.639Z,5.40
2023-05-06T22:34:06.648Z,4.80
2023-05-06T22:36:34.530Z,5.70
2023-05-06T22:39:02.638Z,4.40
2023-05-06T22:41:31.206Z,4.90
2023-05-06T22:44:01.838Z,3.90
2023-05-06T22:46:29.735Z,5.00
2023-05-06T22:48:58.143Z,4.00
2023-05-06T22:51:26.033Z,4.30
2023-05-06T22:53:53.876Z,4.30
2023-05-06T22:56:21.727Z,4.80
2023-05-06T22:58:49.832Z,4.60
2023-05-06T23:01:18.160Z,4.50
2023-05-06T23:03:46.132Z,4.60
2023-05-06T23:06:14.073Z,4.50
2023-05-06T23:08:41.947Z,4.30
2023-05-06T23:11:09.812Z,4.30
2023-05-06T23:13:37.934Z,4.60
2023-05-06T23:16:07.966Z,6.10
2023-05-06T23:18:36.715Z,5.90
2023-05-06T23:21:04.772Z,7.50
2023-05-06T23:23:33.136Z,9.30
2023-05-06T23:26:00.961Z,8.40
2023-05-06T23:28:29.624Z,7.40
2023-05-06T23:30:57.653Z,6.30
2023-05-06T23:33:25.571Z,5.40
2023-05-06T23:35:53.412Z,5.30
2023-05-06T23:38:21.287Z,6.50
2023-05-06T23:40:49.475Z,8.10
2023-05-06T23:43:17.383Z,7.50
2023-05-06T23:45:45.185Z,4.70
2023-05-06T23:48:13.070Z,4.40
2023-05-06T23:50:40.867Z,3.90
2023-05-06T23:53:08.645Z,4.20
2023-05-06T23:55:36.505Z,3.60
2023-05-06T23:58:04.389Z,4.10
